EZY158 EHAM-EGKK
Flight info
| Callsign | EZY158 |
|---|---|
| Flight time | N/A |
| Altitude | 24000 |
| Route | IDRID L980 ABNED Z344 AMRIV Q63 ARREK Y4 TEBRA |
| Aircraft | A320/M-SDE3FGHIRWY/LB1 |
Departure
| Time | 2026-04-28 19:10 |
|---|---|
| Airport | Amsterdam Airport Schiphol (EHAM) |
Arrival
| Time | N/A |
|---|---|
| Airport | London Gatwick Airport (EGKK) |
| Time | Latitude | Longitude | Altitude | Speed | Heading |
|---|---|---|---|---|---|
| 2026-04-28 18:44 | 52.31029 | 4.75460 | 0 ft | 0 kts | 148° |
| 2026-04-28 18:45 | 52.31024 | 4.75465 | -1 ft | 0 kts | 148° |
| 2026-04-28 18:57 | 52.31025 | 4.75464 | -1 ft | 2 kts | 148° |
| 2026-04-28 18:57 | 52.31046 | 4.75444 | -1 ft | 4 kts | 149° |
| 2026-04-28 18:58 | 52.31062 | 4.75422 | 66 ft | 4 kts | 88° |
| 2026-04-28 18:58 | 52.31059 | 4.75395 | -1 ft | 1 kts | 69° |
| 2026-04-28 18:58 | 52.31059 | 4.75394 | -1 ft | 1 kts | 69° |
| 2026-04-28 19:00 | 52.31063 | 4.75408 | -1 ft | 5 kts | 63° |
| 2026-04-28 19:00 | 52.31123 | 4.75496 | -1 ft | 14 kts | 12° |
| 2026-04-28 19:00 | 52.31225 | 4.75489 | -1 ft | 16 kts | 356° |
| 2026-04-28 19:00 | 52.31339 | 4.75478 | -1 ft | 17 kts | 357° |
| 2026-04-28 19:01 | 52.31463 | 4.75470 | -1 ft | 15 kts | 355° |
| 2026-04-28 19:01 | 52.31507 | 4.75359 | -1 ft | 12 kts | 270° |
| 2026-04-28 19:01 | 52.31504 | 4.75227 | -1 ft | 11 kts | 268° |
| 2026-04-28 19:01 | 52.31500 | 4.75098 | -1 ft | 11 kts | 267° |
| 2026-04-28 19:02 | 52.31496 | 4.74953 | -1 ft | 17 kts | 266° |
| 2026-04-28 19:02 | 52.31488 | 4.74708 | -1 ft | 24 kts | 266° |
| 2026-04-28 19:02 | 52.31478 | 4.74465 | -1 ft | 18 kts | 268° |
| 2026-04-28 19:02 | 52.31510 | 4.74308 | -1 ft | 14 kts | 337° |
| 2026-04-28 19:03 | 52.31632 | 4.74306 | -1 ft | 22 kts | 4° |
| 2026-04-28 19:03 | 52.31789 | 4.74320 | -1 ft | 23 kts | 4° |
| 2026-04-28 19:03 | 52.31949 | 4.74340 | -1 ft | 20 kts | 3° |
| 2026-04-28 19:03 | 52.32023 | 4.74296 | -1 ft | 7 kts | 295° |
| 2026-04-28 19:04 | 52.32032 | 4.74164 | -1 ft | 19 kts | 275° |
| 2026-04-28 19:04 | 52.32042 | 4.73935 | -2 ft | 23 kts | 271° |
| 2026-04-28 19:04 | 52.32050 | 4.73626 | -1 ft | 30 kts | 274° |
| 2026-04-28 19:04 | 52.32078 | 4.73382 | -1 ft | 18 kts | 306° |
| 2026-04-28 19:05 | 52.32171 | 4.73242 | -1 ft | 19 kts | 318° |
| 2026-04-28 19:05 | 52.32276 | 4.73098 | -1 ft | 20 kts | 319° |
| 2026-04-28 19:05 | 52.32387 | 4.72939 | -1 ft | 22 kts | 317° |
| 2026-04-28 19:05 | 52.32511 | 4.72766 | -1 ft | 25 kts | 319° |
| 2026-04-28 19:06 | 52.32645 | 4.72580 | -1 ft | 26 kts | 322° |
| 2026-04-28 19:06 | 52.32724 | 4.72436 | -1 ft | 26 kts | 311° |
| 2026-04-28 19:06 | 52.32893 | 4.72130 | -1 ft | 28 kts | 304° |
| 2026-04-28 19:06 | 52.32992 | 4.71944 | -1 ft | 20 kts | 311° |
| 2026-04-28 19:07 | 52.33087 | 4.71771 | -1 ft | 21 kts | 312° |
| 2026-04-28 19:07 | 52.33145 | 4.71565 | -1 ft | 19 kts | 255° |
| 2026-04-28 19:07 | 52.33068 | 4.71411 | -1 ft | 17 kts | 221° |
| 2026-04-28 19:07 | 52.32983 | 4.71288 | -1 ft | 16 kts | 221° |
| 2026-04-28 19:08 | 52.32905 | 4.71176 | -1 ft | 14 kts | 220° |
| 2026-04-28 19:08 | 52.32863 | 4.71065 | -1 ft | 3 kts | 260° |
| 2026-04-28 19:08 | 52.32862 | 4.71054 | -1 ft | 0 kts | 265° |
| 2026-04-28 19:09 | 52.32861 | 4.71032 | -1 ft | 5 kts | 265° |
| 2026-04-28 19:09 | 52.32873 | 4.70925 | -2 ft | 12 kts | 307° |
| 2026-04-28 19:09 | 52.32945 | 4.70898 | -3 ft | 12 kts | 3° |
| 2026-04-28 19:09 | 52.33170 | 4.70924 | -4 ft | 67 kts | 4° |
| 2026-04-28 19:10 | 52.33858 | 4.70989 | -1 ft | 129 kts | 2° |
| 2026-04-28 19:10 | 52.34915 | 4.71073 | 123 ft | 166 kts | 3° |
| 2026-04-28 19:10 | 52.36104 | 4.71146 | 662 ft | 177 kts | 8° |
| 2026-04-28 19:10 | 52.37344 | 4.71315 | 1377 ft | 181 kts | 10° |
| 2026-04-28 19:11 | 52.38627 | 4.71422 | 1983 ft | 190 kts | 9° |
| 2026-04-28 19:11 | 52.39989 | 4.71525 | 2500 ft | 201 kts | 9° |
| 2026-04-28 19:11 | 52.41433 | 4.71565 | 3018 ft | 214 kts | 4° |
| 2026-04-28 19:11 | 52.42994 | 4.71376 | 3433 ft | 238 kts | 358° |
| 2026-04-28 19:12 | 52.44697 | 4.70860 | 3913 ft | 260 kts | 346° |
| 2026-04-28 19:12 | 52.46221 | 4.69196 | 4721 ft | 273 kts | 310° |
| 2026-04-28 19:12 | 52.46939 | 4.66314 | 5633 ft | 279 kts | 276° |
| 2026-04-28 19:12 | 52.46865 | 4.63136 | 6450 ft | 285 kts | 263° |
| 2026-04-28 19:13 | 52.46586 | 4.59895 | 7248 ft | 289 kts | 265° |
| 2026-04-28 19:13 | 52.46270 | 4.56619 | 8077 ft | 293 kts | 255° |
| 2026-04-28 19:13 | 52.45817 | 4.54487 | 8636 ft | 295 kts | 244° |
| 2026-04-28 19:13 | 52.44683 | 4.51694 | 9463 ft | 296 kts | 224° |
| 2026-04-28 19:14 | 52.43069 | 4.49622 | 10251 ft | 297 kts | 209° |
| 2026-04-28 19:14 | 52.41400 | 4.47516 | 10761 ft | 312 kts | 227° |
| 2026-04-28 19:14 | 52.39772 | 4.43461 | 11358 ft | 333 kts | 243° |
| 2026-04-28 19:14 | 52.39091 | 4.41100 | 11598 ft | 343 kts | 246° |
| 2026-04-28 19:15 | 52.38141 | 4.37477 | 12205 ft | 350 kts | 247° |
| 2026-04-28 19:15 | 52.37115 | 4.33848 | 12926 ft | 353 kts | 239° |
| 2026-04-28 19:15 | 52.35714 | 4.30526 | 13650 ft | 356 kts | 235° |
| 2026-04-28 19:15 | 52.34756 | 4.28330 | 14110 ft | 359 kts | 235° |
| 2026-04-28 19:16 | 52.32801 | 4.23871 | 14928 ft | 363 kts | 235° |
| 2026-04-28 19:16 | 52.31321 | 4.20506 | 15569 ft | 365 kts | 235° |
| 2026-04-28 19:16 | 52.29834 | 4.17131 | 16206 ft | 367 kts | 235° |
| 2026-04-28 19:16 | 52.28336 | 4.13734 | 16841 ft | 369 kts | 236° |
| 2026-04-28 19:17 | 52.26848 | 4.10362 | 17452 ft | 372 kts | 235° |
| 2026-04-28 19:17 | 52.25330 | 4.06922 | 18057 ft | 375 kts | 235° |
| 2026-04-28 19:17 | 52.23799 | 4.03457 | 18648 ft | 378 kts | 235° |
| 2026-04-28 19:17 | 52.22255 | 3.99974 | 19175 ft | 380 kts | 235° |
| 2026-04-28 19:18 | 52.20697 | 3.96467 | 19713 ft | 383 kts | 235° |
| 2026-04-28 19:18 | 52.19133 | 3.92950 | 20267 ft | 384 kts | 235° |
| 2026-04-28 19:18 | 52.17559 | 3.89420 | 20809 ft | 386 kts | 235° |
| 2026-04-28 19:18 | 52.15969 | 3.85868 | 21340 ft | 389 kts | 235° |
| 2026-04-28 19:19 | 52.14376 | 3.82305 | 21843 ft | 391 kts | 235° |
| 2026-04-28 19:19 | 52.12769 | 3.78715 | 22334 ft | 393 kts | 235° |
| 2026-04-28 19:19 | 52.11153 | 3.75104 | 22826 ft | 395 kts | 235° |
| 2026-04-28 19:19 | 52.09536 | 3.71492 | 23293 ft | 397 kts | 235° |
| 2026-04-28 19:20 | 52.07901 | 3.67841 | 23749 ft | 400 kts | 235° |
| 2026-04-28 19:20 | 52.06262 | 3.64192 | 24127 ft | 401 kts | 235° |
| 2026-04-28 19:20 | 52.04613 | 3.60524 | 24242 ft | 404 kts | 235° |
| 2026-04-28 19:20 | 52.02933 | 3.56804 | 24269 ft | 409 kts | 234° |
| 2026-04-28 19:21 | 52.01244 | 3.53072 | 24263 ft | 410 kts | 234° |
| 2026-04-28 19:21 | 51.99558 | 3.49354 | 24263 ft | 410 kts | 234° |
| 2026-04-28 19:21 | 51.97868 | 3.45629 | 24260 ft | 410 kts | 234° |
| 2026-04-28 19:21 | 51.96179 | 3.41902 | 24254 ft | 410 kts | 234° |
| 2026-04-28 19:22 | 51.94488 | 3.38173 | 24251 ft | 410 kts | 234° |
| 2026-04-28 19:22 | 51.93370 | 3.35706 | 24261 ft | 410 kts | 234° |
| 2026-04-28 19:22 | 51.91107 | 3.30721 | 24261 ft | 410 kts | 234° |
| 2026-04-28 19:22 | 51.89391 | 3.26954 | 24249 ft | 421 kts | 234° |
| 2026-04-28 19:23 | 51.87625 | 3.23094 | 24247 ft | 432 kts | 234° |
| 2026-04-28 19:23 | 51.85817 | 3.19153 | 24249 ft | 440 kts | 234° |
| 2026-04-28 19:23 | 51.84213 | 3.14975 | 24257 ft | 446 kts | 244° |
| 2026-04-28 19:23 | 51.82805 | 3.10463 | 24248 ft | 453 kts | 244° |
| 2026-04-28 19:24 | 51.81372 | 3.05903 | 24260 ft | 457 kts | 243° |
| 2026-04-28 19:24 | 51.79917 | 3.01305 | 24264 ft | 458 kts | 243° |
| 2026-04-28 19:24 | 51.78462 | 2.96730 | 24257 ft | 458 kts | 243° |
| 2026-04-28 19:24 | 51.77004 | 2.92160 | 24251 ft | 459 kts | 243° |
| 2026-04-28 19:25 | 51.75539 | 2.87567 | 24259 ft | 459 kts | 243° |
| 2026-04-28 19:25 | 51.74074 | 2.82982 | 24255 ft | 459 kts | 243° |
| 2026-04-28 19:25 | 51.72610 | 2.78403 | 24258 ft | 459 kts | 243° |
| 2026-04-28 19:25 | 51.71148 | 2.73831 | 24253 ft | 459 kts | 243° |
| 2026-04-28 19:26 | 51.69714 | 2.69226 | 24254 ft | 459 kts | 247° |
| 2026-04-28 19:26 | 51.68702 | 2.64348 | 24255 ft | 459 kts | 257° |
| 2026-04-28 19:26 | 51.68189 | 2.59281 | 24258 ft | 459 kts | 262° |
| 2026-04-28 19:26 | 51.67740 | 2.54174 | 24257 ft | 460 kts | 262° |
| 2026-04-28 19:27 | 51.67285 | 2.49067 | 24255 ft | 461 kts | 262° |
| 2026-04-28 19:27 | 51.66823 | 2.43959 | 24255 ft | 460 kts | 261° |
| 2026-04-28 19:27 | 51.66355 | 2.38868 | 24265 ft | 460 kts | 261° |
| 2026-04-28 19:27 | 51.65888 | 2.33832 | 24255 ft | 462 kts | 261° |
| 2026-04-28 19:28 | 51.65413 | 2.28708 | 24263 ft | 461 kts | 261° |
| 2026-04-28 19:28 | 51.64936 | 2.23599 | 24260 ft | 462 kts | 261° |
| 2026-04-28 19:28 | 51.64458 | 2.18481 | 24259 ft | 462 kts | 261° |
| 2026-04-28 19:28 | 51.63976 | 2.13353 | 24264 ft | 464 kts | 261° |
| 2026-04-28 19:29 | 51.63491 | 2.08217 | 24268 ft | 465 kts | 261° |
| 2026-04-28 19:29 | 51.63164 | 2.04740 | 24266 ft | 465 kts | 261° |
| 2026-04-28 19:29 | 51.62532 | 1.97923 | 24262 ft | 465 kts | 261° |
| 2026-04-28 19:29 | 51.62056 | 1.92778 | 24263 ft | 466 kts | 261° |
| 2026-04-28 19:30 | 51.61445 | 1.87657 | 24274 ft | 467 kts | 253° |
| 2026-04-28 19:30 | 51.60240 | 1.82816 | 24266 ft | 467 kts | 242° |
| 2026-04-28 19:30 | 51.58431 | 1.78484 | 24266 ft | 468 kts | 230° |
| 2026-04-28 19:30 | 51.56303 | 1.74512 | 24266 ft | 469 kts | 229° |
| 2026-04-28 19:31 | 51.54145 | 1.70575 | 24267 ft | 470 kts | 229° |
| 2026-04-28 19:31 | 51.51968 | 1.66657 | 24265 ft | 470 kts | 229° |
| 2026-04-28 19:31 | 51.49856 | 1.62682 | 23944 ft | 465 kts | 234° |
| 2026-04-28 19:31 | 51.48241 | 1.58330 | 23118 ft | 458 kts | 246° |
| 2026-04-28 19:32 | 51.47107 | 1.53589 | 22060 ft | 455 kts | 250° |
| 2026-04-28 19:32 | 51.46013 | 1.48741 | 20786 ft | 458 kts | 250° |
| 2026-04-28 19:32 | 51.44943 | 1.44035 | 20091 ft | 450 kts | 250° |
| 2026-04-28 19:32 | 51.43586 | 1.39564 | 19431 ft | 443 kts | 238° |
| 2026-04-28 19:33 | 51.41680 | 1.35715 | 18696 ft | 440 kts | 225° |
| 2026-04-28 19:33 | 51.39331 | 1.32587 | 17878 ft | 437 kts | 217° |
| 2026-04-28 19:33 | 51.36895 | 1.29717 | 17090 ft | 433 kts | 216° |
| 2026-04-28 19:33 | 51.34478 | 1.26869 | 16414 ft | 428 kts | 216° |
| 2026-04-28 19:34 | 51.32128 | 1.24091 | 16228 ft | 412 kts | 216° |
| 2026-04-28 19:34 | 51.29854 | 1.21401 | 15867 ft | 402 kts | 216° |
| 2026-04-28 19:34 | 51.27615 | 1.18763 | 15319 ft | 398 kts | 216° |
| 2026-04-28 19:34 | 51.25397 | 1.16154 | 14742 ft | 395 kts | 215° |
| 2026-04-28 19:35 | 51.23191 | 1.13561 | 14158 ft | 392 kts | 214° |
| 2026-04-28 19:35 | 51.20994 | 1.10983 | 13516 ft | 390 kts | 215° |
| 2026-04-28 19:35 | 51.18851 | 1.08369 | 12991 ft | 385 kts | 221° |
| 2026-04-28 19:35 | 51.17194 | 1.05176 | 12747 ft | 374 kts | 238° |
| 2026-04-28 19:36 | 51.16197 | 1.01405 | 12477 ft | 369 kts | 255° |
| 2026-04-28 19:36 | 51.15575 | 0.97443 | 12213 ft | 368 kts | 256° |
| 2026-04-28 19:36 | 51.14959 | 0.93495 | 11959 ft | 367 kts | 256° |
| 2026-04-28 19:36 | 51.14339 | 0.89562 | 11708 ft | 366 kts | 255° |
| 2026-04-28 19:37 | 51.13716 | 0.85627 | 11455 ft | 365 kts | 255° |
| 2026-04-28 19:37 | 51.13298 | 0.82992 | 11216 ft | 361 kts | 255° |
| 2026-04-28 19:37 | 51.12490 | 0.77923 | 10028 ft | 354 kts | 256° |
| 2026-04-28 19:37 | 51.11902 | 0.74245 | 9727 ft | 330 kts | 256° |
| 2026-04-28 19:38 | 51.11360 | 0.70846 | 9698 ft | 306 kts | 256° |
| 2026-04-28 19:38 | 51.10839 | 0.67588 | 9063 ft | 301 kts | 256° |
| 2026-04-28 19:38 | 51.10327 | 0.64384 | 8436 ft | 297 kts | 256° |
| 2026-04-28 19:38 | 51.09818 | 0.61218 | 7811 ft | 294 kts | 256° |
| 2026-04-28 19:39 | 51.09312 | 0.58091 | 7211 ft | 290 kts | 256° |
| 2026-04-28 19:39 | 51.08809 | 0.54980 | 6587 ft | 289 kts | 256° |
| 2026-04-28 19:39 | 51.08310 | 0.51897 | 5945 ft | 287 kts | 256° |
| 2026-04-28 19:39 | 51.07816 | 0.48842 | 5317 ft | 285 kts | 256° |
| 2026-04-28 19:40 | 51.07324 | 0.45804 | 4661 ft | 283 kts | 256° |
| 2026-04-28 19:40 | 51.06832 | 0.42784 | 4289 ft | 283 kts | 256° |
| 2026-04-28 19:40 | 51.06672 | 0.41800 | 4254 ft | 284 kts | 256° |
| 2026-04-28 19:40 | 51.06219 | 0.39090 | 4231 ft | 283 kts | 256° |
| 2026-04-28 19:41 | 51.05720 | 0.36052 | 4215 ft | 285 kts | 256° |
| 2026-04-28 19:41 | 51.05226 | 0.33008 | 4209 ft | 284 kts | 256° |
| 2026-04-28 19:41 | 51.04747 | 0.30036 | 4198 ft | 285 kts | 256° |
| 2026-04-28 19:41 | 51.04293 | 0.26979 | 4182 ft | 284 kts | 259° |
| 2026-04-28 19:42 | 51.03948 | 0.23890 | 3990 ft | 283 kts | 261° |
| 2026-04-28 19:42 | 51.03627 | 0.20805 | 3562 ft | 282 kts | 261° |
| 2026-04-28 19:42 | 51.03310 | 0.17727 | 3188 ft | 282 kts | 261° |
| 2026-04-28 19:42 | 51.03129 | 0.15684 | 3127 ft | 282 kts | 267° |
| 2026-04-28 19:43 | 51.03046 | 0.11523 | 3011 ft | 282 kts | 271° |
| 2026-04-28 19:43 | 51.03034 | 0.08402 | 3010 ft | 283 kts | 271° |
| 2026-04-28 19:43 | 51.03023 | 0.05281 | 3011 ft | 282 kts | 270° |
| 2026-04-28 19:43 | 51.02836 | 0.02227 | 3011 ft | 283 kts | 262° |
| 2026-04-28 19:44 | 51.02526 | -0.00921 | 3014 ft | 290 kts | 261° |
| 2026-04-28 19:44 | 51.02195 | -0.04079 | 3010 ft | 293 kts | 261° |
| 2026-04-28 19:44 | 51.01968 | -0.07284 | 3007 ft | 291 kts | 275° |
| 2026-04-28 19:44 | 51.02152 | -0.10474 | 3008 ft | 290 kts | 279° |
| 2026-04-28 19:45 | 51.02352 | -0.13666 | 3011 ft | 290 kts | 279° |
| 2026-04-28 19:45 | 51.02551 | -0.16853 | 3011 ft | 290 kts | 278° |
| 2026-04-28 19:45 | 51.02750 | -0.20044 | 3010 ft | 290 kts | 278° |
| 2026-04-28 19:45 | 51.02948 | -0.23228 | 3010 ft | 289 kts | 278° |
| 2026-04-28 19:46 | 51.03226 | -0.26380 | 3006 ft | 287 kts | 291° |
| 2026-04-28 19:46 | 51.04028 | -0.29231 | 3011 ft | 279 kts | 302° |
| 2026-04-28 19:46 | 51.04836 | -0.31922 | 3010 ft | 261 kts | 301° |
| 2026-04-28 19:46 | 51.05586 | -0.34444 | 3013 ft | 248 kts | 301° |
| 2026-04-28 19:47 | 51.06330 | -0.36936 | 3012 ft | 250 kts | 303° |
| 2026-04-28 19:47 | 51.07311 | -0.39150 | 2968 ft | 242 kts | 319° |
| 2026-04-28 19:47 | 51.08418 | -0.41102 | 2836 ft | 232 kts | 321° |
| 2026-04-28 19:47 | 51.09536 | -0.42835 | 2704 ft | 213 kts | 338° |
| 2026-04-28 19:48 | 51.10816 | -0.43251 | 2559 ft | 175 kts | 24° |
| 2026-04-28 19:48 | 51.11628 | -0.42153 | 2401 ft | 148 kts | 72° |
| 2026-04-28 19:48 | 51.11721 | -0.40567 | 2127 ft | 141 kts | 78° |
| 2026-04-28 19:48 | 51.12003 | -0.39057 | 2000 ft | 136 kts | 73° |
| 2026-04-28 19:49 | 51.12211 | -0.37646 | 2035 ft | 129 kts | 73° |
| 2026-04-28 19:49 | 51.12405 | -0.36297 | 2017 ft | 124 kts | 73° |
| 2026-04-28 19:49 | 51.12596 | -0.34957 | 1945 ft | 124 kts | 73° |
| 2026-04-28 19:49 | 51.12785 | -0.33619 | 1832 ft | 124 kts | 73° |
| 2026-04-28 19:50 | 51.13158 | -0.30958 | 1531 ft | 122 kts | 73° |
| 2026-04-28 19:50 | 51.13337 | -0.29639 | 1368 ft | 123 kts | 73° |
| 2026-04-28 19:50 | 51.13513 | -0.28306 | 1187 ft | 122 kts | 70° |
| 2026-04-28 19:51 | 51.13710 | -0.26967 | 985 ft | 124 kts | 74° |
| 2026-04-28 19:51 | 51.13896 | -0.25636 | 814 ft | 124 kts | 70° |
| 2026-04-28 19:51 | 51.14083 | -0.24283 | 675 ft | 127 kts | 73° |
| 2026-04-28 19:51 | 51.14282 | -0.22905 | 512 ft | 129 kts | 73° |
| 2026-04-28 19:52 | 51.14472 | -0.21506 | 369 ft | 127 kts | 75° |
| 2026-04-28 19:52 | 51.14656 | -0.20168 | 231 ft | 121 kts | 73° |
| 2026-04-28 19:52 | 51.14778 | -0.19386 | 209 ft | 98 kts | 78° |